Time;durP1;ratioP1;P1;durP2;ratioP2;P2;SDS_P1;SDS_P2;PMS_P1;PMS_P2;Temp;Humidity;BMP_temperature;BMP_pressure;BME280_temperature;BME280_humidity;BME280_pressure;Samples;Min_cycle;Max_cycle;Signal;HPM_P1;HPM_P2
2022/04/27 00:01:32;;;;;;;;;;;17.90;99.90;;;;;;5099809;28;19919;-47
2022/04/27 00:03:57;;;;;;;;;;;17.90;99.90;;;;;;5118028;28;19958;-46
2022/04/27 00:06:23;;;;;;;;;;;17.90;99.90;;;;;;5099696;28;20243;-46
2022/04/27 00:08:48;;;;;;;;;;;17.90;99.90;;;;;;5117951;28;20251;-46
2022/04/27 00:11:15;;;;;;;;;;;17.90;99.90;;;;;;5117566;28;20311;-45
2022/04/27 00:13:41;;;;;;;;;;;17.90;99.90;;;;;;5117387;28;19953;-47
2022/04/27 00:16:06;;;;;;;;;;;17.90;99.90;;;;;;5117491;28;19973;-47
2022/04/27 00:18:32;;;;;;;;;;;17.90;99.90;;;;;;5117342;28;19961;-45
2022/04/27 00:20:57;;;;;;;;;;;17.90;99.90;;;;;;5117261;28;19974;-46
2022/04/27 00:23:25;;;;;;;;;;;17.90;99.90;;;;;;5117642;28;20367;-49
2022/04/27 00:25:51;;;;;;;;;;;18.00;99.90;;;;;;5099229;28;20262;-45
2022/04/27 00:28:16;;;;;;;;;;;18.00;99.90;;;;;;5117387;28;19907;-46
2022/04/27 00:30:42;;;;;;;;;;;18.00;99.90;;;;;;5099109;28;19912;-50
2022/04/27 00:33:09;;;;;;;;;;;17.90;99.90;;;;;;5116672;28;19966;-46
2022/04/27 00:35:36;;;;;;;;;;;17.90;99.90;;;;;;5117031;28;20346;-48
2022/04/27 00:38:01;;;;;;;;;;;17.90;99.90;;;;;;5099024;28;20354;-46
2022/04/27 00:40:27;;;;;;;;;;;17.90;99.90;;;;;;5117343;28;19915;-45
2022/04/27 00:42:52;;;;;;;;;;;18.00;99.90;;;;;;5116911;28;19915;-46
2022/04/27 00:45:18;;;;;;;;;;;17.90;99.90;;;;;;5117237;28;19957;-47
2022/04/27 00:47:44;;;;;;;;;;;18.00;99.90;;;;;;5117079;28;20459;-45
2022/04/27 00:50:09;;;;;;;;;;;17.90;99.90;;;;;;5117021;28;19908;-48
2022/04/27 00:52:35;;;;;;;;;;;17.90;99.90;;;;;;5117006;28;19908;-47
2022/04/27 00:55:01;;;;;;;;;;;17.90;99.90;;;;;;5116975;28;19912;-47
2022/04/27 00:57:27;;;;;;;;;;;17.90;99.90;;;;;;5116972;28;19931;-48
2022/04/27 00:59:53;;;;;;;;;;;17.90;99.90;;;;;;5116497;28;19915;-46
2022/04/27 01:02:18;;;;;;;;;;;17.90;99.90;;;;;;5116542;28;19912;-46
2022/04/27 01:04:44;;;;;;;;;;;17.90;99.90;;;;;;5116818;28;19996;-48
2022/04/27 01:07:11;;;;;;;;;;;17.90;99.90;;;;;;5116494;28;19931;-45
2022/04/27 01:09:37;;;;;;;;;;;17.90;99.90;;;;;;5116451;28;19907;-46
2022/04/27 01:12:03;;;;;;;;;;;17.90;99.90;;;;;;5116332;28;20453;-47
2022/04/27 01:14:28;;;;;;;;;;;17.90;99.90;;;;;;5116614;28;19953;-46
2022/04/27 01:16:55;;;;;;;;;;;18.00;99.90;;;;;;5116340;28;20003;-46
2022/04/27 01:19:23;;;;;;;;;;;18.00;99.90;;;;;;5116493;28;19908;-45
2022/04/27 01:21:51;;;;;;;;;;;17.90;99.90;;;;;;5116245;28;19908;-45
2022/04/27 01:24:21;;;;;;;;;;;18.00;99.90;;;;;;5116400;28;20040;-48
2022/04/27 01:26:48;;;;;;;;;;;18.00;99.90;;;;;;5098396;28;20358;-46
2022/04/27 01:29:14;;;;;;;;;;;17.90;99.90;;;;;;5115963;28;19908;-47
2022/04/27 01:31:40;;;;;;;;;;;17.90;99.90;;;;;;5116427;28;19942;-49
2022/04/27 01:34:05;;;;;;;;;;;18.00;99.90;;;;;;5116056;28;20330;-46
2022/04/27 01:36:31;;;;;;;;;;;17.90;99.90;;;;;;5115873;28;19915;-45
2022/04/27 01:38:56;;;;;;;;;;;18.00;99.90;;;;;;5116119;28;19961;-45
2022/04/27 01:41:22;;;;;;;;;;;18.00;99.90;;;;;;5115708;28;19988;-45
2022/04/27 01:43:47;;;;;;;;;;;18.00;99.90;;;;;;5115516;28;19908;-47
2022/04/27 01:46:13;;;;;;;;;;;17.90;99.90;;;;;;5115815;28;20350;-46
2022/04/27 01:48:40;;;;;;;;;;;17.90;99.90;;;;;;5115471;28;19908;-45
2022/04/27 01:51:05;;;;;;;;;;;17.90;99.90;;;;;;5115654;28;20040;-47
2022/04/27 01:56:15;;;;;;;;;;;17.90;99.90;;;;;;5115676;28;19961;-44
2022/04/27 01:58:41;;;;;;;;;;;17.90;99.90;;;;;;5115662;28;19907;-50
2022/04/27 02:01:10;;;;;;;;;;;18.00;99.90;;;;;;5115575;28;20282;-45
2022/04/27 02:03:36;;;;;;;;;;;18.00;99.90;;;;;;5115648;28;19931;-47
2022/04/27 02:06:02;;;;;;;;;;;18.00;99.90;;;;;;5115276;28;20381;-45
2022/04/27 02:08:27;;;;;;;;;;;18.00;99.90;;;;;;5115543;28;19947;-45
2022/04/27 02:10:53;;;;;;;;;;;18.00;99.90;;;;;;5115265;28;19908;-45
2022/04/27 02:13:18;;;;;;;;;;;18.00;99.90;;;;;;5115386;28;19911;-45
2022/04/27 02:15:44;;;;;;;;;;;18.00;99.90;;;;;;5115438;28;20348;-46
2022/04/27 02:18:09;;;;;;;;;;;18.00;99.90;;;;;;5115095;28;19933;-47
2022/04/27 02:20:35;;;;;;;;;;;18.00;99.90;;;;;;5115025;28;19969;-46
2022/04/27 02:23:01;;;;;;;;;;;18.10;99.90;;;;;;5115232;28;19953;-47
2022/04/27 02:25:26;;;;;;;;;;;18.00;99.90;;;;;;5114878;28;19961;-47
2022/04/27 02:27:52;;;;;;;;;;;18.00;99.90;;;;;;5114913;28;19912;-47
2022/04/27 02:30:21;;;;;;;;;;;18.10;99.90;;;;;;5097203;28;19907;-46
2022/04/27 02:32:47;;;;;;;;;;;18.00;99.90;;;;;;5115202;28;19934;-45
2022/04/27 02:35:13;;;;;;;;;;;18.00;99.90;;;;;;5115067;28;19908;-46
2022/04/27 02:37:38;;;;;;;;;;;18.00;99.90;;;;;;5115075;28;20048;-46
2022/04/27 02:40:04;;;;;;;;;;;17.90;99.90;;;;;;5114600;28;20010;-45
2022/04/27 02:42:30;;;;;;;;;;;18.00;99.90;;;;;;5114955;28;20311;-46
2022/04/27 02:44:56;;;;;;;;;;;18.00;99.90;;;;;;5114950;28;19912;-45
2022/04/27 02:47:22;;;;;;;;;;;18.00;99.90;;;;;;5114970;28;20301;-49
2022/04/27 02:52:32;;;;;;;;;;;17.90;99.90;;;;;;5114728;28;19919;-45
2022/04/27 02:54:57;;;;;;;;;;;18.00;99.90;;;;;;5114824;28;19908;-47
2022/04/27 02:57:23;;;;;;;;;;;18.00;99.90;;;;;;5114681;28;19908;-47
2022/04/27 02:59:49;;;;;;;;;;;18.00;99.90;;;;;;5114945;28;20014;-47
2022/04/27 03:02:15;;;;;;;;;;;18.00;99.90;;;;;;5114776;28;19998;-46
2022/04/27 03:04:40;;;;;;;;;;;18.10;99.90;;;;;;5114761;28;20376;-46
2022/04/27 03:07:06;;;;;;;;;;;18.10;99.90;;;;;;5114619;28;19912;-46
2022/04/27 03:09:31;;;;;;;;;;;18.10;99.90;;;;;;5114492;28;19918;-45
2022/04/27 03:11:58;;;;;;;;;;;18.10;99.90;;;;;;5096216;28;19907;-45
2022/04/27 03:14:23;;;;;;;;;;;18.00;99.90;;;;;;5114090;28;19960;-45
2022/04/27 03:16:49;;;;;;;;;;;18.10;99.90;;;;;;5114197;28;19908;-50
2022/04/27 03:19:15;;;;;;;;;;;18.10;99.90;;;;;;5114153;28;19908;-48
2022/04/27 03:21:41;;;;;;;;;;;18.10;99.90;;;;;;5114567;28;19915;-44
2022/04/27 03:24:06;;;;;;;;;;;18.00;99.90;;;;;;5114217;28;19908;-48
2022/04/27 03:26:32;;;;;;;;;;;18.10;99.90;;;;;;5114192;28;19919;-45
2022/04/27 03:28:58;;;;;;;;;;;18.00;99.90;;;;;;5114154;28;19908;-47
2022/04/27 03:31:24;;;;;;;;;;;18.00;99.90;;;;;;5114069;28;19926;-46
2022/04/27 03:33:49;;;;;;;;;;;18.00;99.90;;;;;;5114421;28;19995;-46
2022/04/27 03:36:15;;;;;;;;;;;18.00;99.90;;;;;;5114690;28;19907;-49
2022/04/27 03:38:41;;;;;;;;;;;18.00;99.90;;;;;;5114201;28;19958;-46
2022/04/27 03:41:07;;;;;;;;;;;18.10;99.90;;;;;;5114032;28;19923;-45
2022/04/27 03:43:33;;;;;;;;;;;18.10;99.90;;;;;;5096039;28;19908;-46
2022/04/27 03:45:58;;;;;;;;;;;18.10;99.90;;;;;;5114264;28;20007;-46
2022/04/27 03:48:24;;;;;;;;;;;18.10;99.90;;;;;;5114128;28;20011;-45
2022/04/27 03:50:50;;;;;;;;;;;18.10;99.90;;;;;;5113952;28;20389;-47
2022/04/27 03:53:15;;;;;;;;;;;18.10;99.90;;;;;;5113843;28;19915;-45
2022/04/27 03:55:41;;;;;;;;;;;18.00;99.90;;;;;;5114465;28;19908;-46
2022/04/27 03:58:06;;;;;;;;;;;18.00;99.90;;;;;;5113809;28;19932;-46
2022/04/27 04:00:32;;;;;;;;;;;18.10;99.90;;;;;;5113894;28;20022;-45
2022/04/27 04:02:59;;;;;;;;;;;18.10;99.90;;;;;;5114092;28;19954;-45
2022/04/27 04:05:25;;;;;;;;;;;18.00;99.90;;;;;;5113791;28;19908;-47
2022/04/27 04:07:50;;;;;;;;;;;18.10;99.90;;;;;;5115349;28;20036;-45
2022/04/27 04:10:16;;;;;;;;;;;18.10;99.90;;;;;;5117739;28;19908;-45
2022/04/27 04:12:43;;;;;;;;;;;18.10;99.90;;;;;;5099622;28;20392;-45
2022/04/27 04:15:09;;;;;;;;;;;18.00;99.90;;;;;;5117670;28;19915;-50
2022/04/27 04:17:34;;;;;;;;;;;18.10;99.90;;;;;;5117479;28;19908;-45
2022/04/27 04:20:00;;;;;;;;;;;18.10;99.90;;;;;;5117195;28;19920;-44
2022/04/27 04:22:26;;;;;;;;;;;18.10;99.90;;;;;;5117308;28;19960;-46
2022/04/27 04:30:20;;;;;;;;;;;18.10;99.90;;;;;;5117159;28;19937;-47
2022/04/27 04:32:45;;;;;;;;;;;18.10;99.90;;;;;;5117525;28;19920;-48
2022/04/27 04:35:11;;;;;;;;;;;18.10;99.90;;;;;;5116902;28;19933;-44
2022/04/27 04:37:36;;;;;;;;;;;18.20;99.90;;;;;;5116959;28;20320;-44
2022/04/27 04:40:02;;;;;;;;;;;18.20;99.90;;;;;;5098806;28;20018;-45
2022/04/27 04:42:27;;;;;;;;;;;18.20;99.90;;;;;;5117021;28;20369;-49
2022/04/27 04:44:53;;;;;;;;;;;18.20;99.90;;;;;;5116695;28;19931;-47
2022/04/27 04:47:18;;;;;;;;;;;18.30;99.90;;;;;;5117051;28;19918;-46
2022/04/27 04:49:44;;;;;;;;;;;18.30;99.90;;;;;;5117063;28;19912;-49
2022/04/27 04:52:10;;;;;;;;;;;18.20;99.90;;;;;;5116583;28;20269;-47
2022/04/27 04:54:35;;;;;;;;;;;18.30;99.90;;;;;;5116935;28;19908;-46
2022/04/27 04:57:01;;;;;;;;;;;18.30;99.90;;;;;;5116349;28;19907;-46
2022/04/27 04:59:26;;;;;;;;;;;18.30;99.90;;;;;;5116743;28;20324;-49
2022/04/27 05:01:53;;;;;;;;;;;18.30;99.90;;;;;;5116605;28;19912;-50
2022/04/27 05:04:18;;;;;;;;;;;18.30;99.90;;;;;;5116499;28;20269;-49
2022/04/27 05:06:46;;;;;;;;;;;18.30;99.90;;;;;;5116333;28;19908;-48
2022/04/27 05:09:12;;;;;;;;;;;18.30;99.90;;;;;;5116554;28;19907;-50
2022/04/27 05:11:37;;;;;;;;;;;18.30;99.90;;;;;;5116647;28;20362;-48
2022/04/27 05:14:03;;;;;;;;;;;18.30;99.90;;;;;;5098154;28;20011;-50
2022/04/27 05:16:31;;;;;;;;;;;18.30;99.90;;;;;;5116072;28;19918;-48
2022/04/27 05:18:56;;;;;;;;;;;18.30;99.90;;;;;;5115127;28;19908;-52
2022/04/27 05:21:22;;;;;;;;;;;18.30;99.90;;;;;;5115916;28;20033;-48
2022/04/27 05:23:47;;;;;;;;;;;18.30;99.90;;;;;;5116267;28;19953;-46
2022/04/27 05:26:13;;;;;;;;;;;18.30;99.90;;;;;;5097984;28;19961;-47
2022/04/27 05:32:05;;;;;;;;;;;18.30;99.90;;;;;;5116386;28;19942;-49
2022/04/27 05:34:11;;;;;;;;;;;18.40;99.90;;;;;;5102313;28;19911;-46
2022/04/27 05:36:36;;;;;;;;;;;18.40;99.90;;;;;;5115985;28;19915;-46
2022/04/27 05:39:02;;;;;;;;;;;18.40;99.90;;;;;;5116190;28;19981;-50
2022/04/27 05:41:28;;;;;;;;;;;18.30;99.90;;;;;;5097402;28;20370;-46
2022/04/27 05:43:53;;;;;;;;;;;18.40;99.90;;;;;;5115626;28;19952;-47
2022/04/27 05:46:20;;;;;;;;;;;18.40;99.90;;;;;;5096942;28;20416;-49
2022/04/27 05:48:45;;;;;;;;;;;18.40;99.90;;;;;;5115359;28;20223;-49
2022/04/27 05:51:11;;;;;;;;;;;18.40;99.90;;;;;;5116077;28;19915;-48
2022/04/27 05:53:36;;;;;;;;;;;18.40;99.90;;;;;;5115563;28;19939;-47
2022/04/27 05:56:02;;;;;;;;;;;18.50;99.90;;;;;;5115377;28;19912;-49
2022/04/27 05:58:30;;;;;;;;;;;18.40;99.90;;;;;;5115258;28;20381;-48
2022/04/27 06:00:55;;;;;;;;;;;18.40;99.90;;;;;;5097247;28;20346;-47
2022/04/27 06:03:21;;;;;;;;;;;18.50;99.90;;;;;;5115118;28;19915;-47
2022/04/27 06:05:46;;;;;;;;;;;18.50;99.90;;;;;;5115178;28;19923;-49
2022/04/27 06:08:12;;;;;;;;;;;18.50;99.90;;;;;;5115198;28;19912;-46
2022/04/27 06:10:38;;;;;;;;;;;18.50;99.90;;;;;;5115002;28;20025;-47
2022/04/27 06:13:03;;;;;;;;;;;18.50;99.90;;;;;;5114777;28;19936;-48
2022/04/27 06:15:29;;;;;;;;;;;18.50;99.90;;;;;;5114991;28;20328;-47
2022/04/27 06:17:54;;;;;;;;;;;18.50;99.90;;;;;;5096975;28;19907;-48
2022/04/27 06:20:20;;;;;;;;;;;18.50;99.90;;;;;;5115031;28;19920;-47
2022/04/27 06:22:46;;;;;;;;;;;18.50;99.90;;;;;;5115356;28;19908;-48
2022/04/27 06:25:11;;;;;;;;;;;18.50;99.90;;;;;;5114619;28;20382;-46
2022/04/27 06:27:37;;;;;;;;;;;18.50;99.90;;;;;;5115013;28;20346;-46
2022/04/27 06:30:03;;;;;;;;;;;18.50;99.90;;;;;;5114955;28;19907;-50
2022/04/27 06:32:29;;;;;;;;;;;18.50;99.90;;;;;;5114337;28;19960;-46
2022/04/27 06:34:55;;;;;;;;;;;18.60;99.90;;;;;;5114846;28;20312;-50
2022/04/27 06:37:20;;;;;;;;;;;18.60;99.90;;;;;;5114366;28;19912;-48
2022/04/27 06:39:46;;;;;;;;;;;18.60;99.90;;;;;;5114289;28;19961;-52
2022/04/27 06:42:11;;;;;;;;;;;18.60;99.90;;;;;;5114582;28;19947;-50
2022/04/27 06:44:37;;;;;;;;;;;18.60;99.90;;;;;;5114561;28;19908;-47
2022/04/27 06:47:03;;;;;;;;;;;18.60;99.90;;;;;;5114179;28;20007;-47
2022/04/27 06:49:29;;;;;;;;;;;18.60;99.90;;;;;;5114227;28;19919;-47
2022/04/27 06:51:54;;;;;;;;;;;18.60;99.90;;;;;;5114530;28;19908;-50
2022/04/27 06:54:20;;;;;;;;;;;18.60;99.90;;;;;;5113860;28;19995;-50
2022/04/27 06:56:46;;;;;;;;;;;18.60;99.90;;;;;;5113879;28;19969;-52
2022/04/27 06:59:11;;;;;;;;;;;18.70;99.90;;;;;;5114667;28;19908;-47
2022/04/27 07:01:37;;;;;;;;;;;18.70;99.90;;;;;;5114543;28;19916;-50
2022/04/27 07:04:08;;;;;;;;;;;18.70;99.90;;;;;;5114315;28;20297;-48
2022/04/27 07:06:34;;;;;;;;;;;18.70;99.90;;;;;;5114320;28;19939;-48
2022/04/27 07:09:00;;;;;;;;;;;18.70;99.90;;;;;;5113953;28;19908;-49
2022/04/27 07:11:25;;;;;;;;;;;18.70;99.90;;;;;;5114106;28;19907;-50
2022/04/27 07:13:51;;;;;;;;;;;18.70;99.90;;;;;;5114506;28;19908;-47
2022/04/27 07:16:17;;;;;;;;;;;18.70;99.90;;;;;;5130036;27;20350;-49
2022/04/27 07:18:42;;;;;;;;;;;18.70;99.90;;;;;;5096157;28;19912;-50
2022/04/27 07:21:08;;;;;;;;;;;18.70;99.90;;;;;;5114025;28;20261;-47
2022/04/27 07:23:34;;;;;;;;;;;18.70;99.90;;;;;;5114110;28;20002;-48
2022/04/27 07:25:59;;;;;;;;;;;18.70;99.90;;;;;;5113950;28;19951;-51
2022/04/27 07:28:25;;;;;;;;;;;18.80;99.90;;;;;;5113781;28;19915;-47
2022/04/27 07:30:50;;;;;;;;;;;18.80;99.90;;;;;;5114017;28;20368;-49
2022/04/27 07:33:16;;;;;;;;;;;18.80;99.90;;;;;;5095675;28;20354;-49
2022/04/27 07:35:41;;;;;;;;;;;18.80;99.90;;;;;;5114098;28;19947;-48
2022/04/27 07:38:07;;;;;;;;;;;18.80;99.90;;;;;;5114358;28;19944;-48
2022/04/27 07:40:33;;;;;;;;;;;18.80;99.90;;;;;;5114028;28;20018;-47
2022/04/27 07:42:59;;;;;;;;;;;18.80;99.90;;;;;;5115660;28;19908;-48
2022/04/27 07:45:25;;;;;;;;;;;18.70;99.90;;;;;;5117774;28;20266;-46
2022/04/27 07:47:51;;;;;;;;;;;18.70;99.90;;;;;;5117690;28;19990;-48
2022/04/27 07:50:17;;;;;;;;;;;18.80;99.90;;;;;;5117618;28;19994;-48
2022/04/27 07:52:43;;;;;;;;;;;18.70;99.90;;;;;;5118030;28;19943;-47
2022/04/27 07:55:08;;;;;;;;;;;18.70;99.90;;;;;;5117706;28;20337;-46
2022/04/27 07:57:34;;;;;;;;;;;18.80;99.90;;;;;;5099530;28;19908;-48
2022/04/27 08:00:00;;;;;;;;;;;18.80;99.90;;;;;;5117882;28;19923;-50
2022/04/27 08:02:26;;;;;;;;;;;18.80;99.90;;;;;;5117859;28;19973;-48
2022/04/27 08:04:52;;;;;;;;;;;18.70;99.90;;;;;;5117512;28;19941;-48
2022/04/27 08:07:17;;;;;;;;;;;18.80;99.90;;;;;;5117460;28;19915;-48
2022/04/27 08:09:43;;;;;;;;;;;18.80;99.90;;;;;;5117316;28;19908;-50
2022/04/27 08:12:08;;;;;;;;;;;18.80;99.90;;;;;;5117979;28;20338;-46
2022/04/27 08:14:36;;;;;;;;;;;18.90;99.90;;;;;;5099108;28;19908;-49
2022/04/27 08:17:02;;;;;;;;;;;18.90;99.90;;;;;;5117265;28;19908;-48
2022/04/27 08:19:27;;;;;;;;;;;18.90;99.90;;;;;;5117384;28;20342;-47
2022/04/27 08:21:54;;;;;;;;;;;18.90;99.90;;;;;;5117495;28;19921;-50
2022/04/27 08:24:21;;;;;;;;;;;18.90;99.90;;;;;;5117318;28;20307;-49
2022/04/27 08:26:46;;;;;;;;;;;19.00;99.90;;;;;;5116960;28;20314;-48
2022/04/27 08:29:12;;;;;;;;;;;18.90;99.90;;;;;;5117214;28;19957;-51
2022/04/27 08:31:37;;;;;;;;;;;18.90;99.90;;;;;;5116966;28;19920;-48
2022/04/27 08:34:03;;;;;;;;;;;18.90;99.90;;;;;;5117356;28;19908;-48
2022/04/27 08:36:28;;;;;;;;;;;19.00;99.90;;;;;;5116806;28;19908;-50
2022/04/27 08:38:54;;;;;;;;;;;19.00;99.90;;;;;;5116725;28;19908;-49
2022/04/27 08:41:20;;;;;;;;;;;19.00;99.90;;;;;;5116720;28;19915;-47
2022/04/27 08:43:45;;;;;;;;;;;19.00;99.90;;;;;;5117295;28;19933;-49
2022/04/27 08:46:12;;;;;;;;;;;19.00;99.90;;;;;;5116496;28;19907;-48
2022/04/27 08:48:38;;;;;;;;;;;19.00;99.90;;;;;;5116791;28;19911;-50
2022/04/27 08:51:04;;;;;;;;;;;19.00;99.90;;;;;;5116429;28;19908;-48
2022/04/27 08:53:31;;;;;;;;;;;19.00;99.90;;;;;;5116554;28;19933;-50
2022/04/27 08:55:56;;;;;;;;;;;19.00;99.90;;;;;;5116523;28;20388;-48
2022/04/27 08:58:23;;;;;;;;;;;19.00;99.90;;;;;;5116658;28;19912;-47
2022/04/27 09:00:48;;;;;;;;;;;19.00;99.90;;;;;;5116191;28;19938;-47
2022/04/27 09:03:23;;;;;;;;;;;19.00;99.90;;;;;;5116300;28;19908;-49
2022/04/27 09:05:53;;;;;;;;;;;19.00;99.90;;;;;;5116438;28;19931;-50
2022/04/27 09:08:19;;;;;;;;;;;19.00;99.90;;;;;;5116520;28;19958;-47
2022/04/27 09:10:44;;;;;;;;;;;19.10;99.90;;;;;;5116120;28;19908;-48
2022/04/27 09:13:10;;;;;;;;;;;19.10;99.90;;;;;;5115997;28;19914;-48
2022/04/27 09:15:35;;;;;;;;;;;19.10;99.90;;;;;;5116319;28;20006;-50
2022/04/27 09:20:50;;;;;;;;;;;19.10;99.90;;;;;;5116160;28;20019;-48
2022/04/27 09:23:21;;;;;;;;;;;19.20;99.90;;;;;;5116346;28;19907;-48
2022/04/27 09:25:47;;;;;;;;;;;19.20;99.90;;;;;;5116242;28;20362;-47
2022/04/27 09:28:13;;;;;;;;;;;19.10;99.90;;;;;;5115991;28;19965;-51
2022/04/27 09:30:38;;;;;;;;;;;19.20;99.90;;;;;;5116138;28;19908;-49
2022/04/27 09:33:04;;;;;;;;;;;19.10;99.90;;;;;;5116485;28;20316;-52
2022/04/27 09:35:36;;;;;;;;;;;19.10;99.90;;;;;;5116025;28;19908;-47
2022/04/27 09:38:12;;;;;;;;;;;19.20;99.90;;;;;;5115975;28;20362;-50
2022/04/27 09:40:44;;;;;;;;;;;19.20;99.90;;;;;;5115537;28;19923;-47
2022/04/27 09:43:13;;;;;;;;;;;19.20;99.90;;;;;;5115639;28;20348;-46
2022/04/27 09:45:39;;;;;;;;;;;19.20;99.90;;;;;;5115633;28;19908;-47
2022/04/27 09:48:05;;;;;;;;;;;19.20;99.90;;;;;;5115547;28;20308;-47
2022/04/27 09:50:46;;;;;;;;;;;19.20;99.90;;;;;;5115755;28;20385;-47
2022/04/27 09:53:12;;;;;;;;;;;19.20;99.90;;;;;;5115279;28;20354;-48
2022/04/27 09:55:43;;;;;;;;;;;19.20;99.90;;;;;;5115471;28;19908;-47
2022/04/27 09:58:11;;;;;;;;;;;19.20;99.90;;;;;;5131582;27;19956;-47
2022/04/27 10:00:39;;;;;;;;;;;19.20;99.90;;;;;;5097252;28;19920;-47
2022/04/27 10:03:04;;;;;;;;;;;19.20;99.90;;;;;;5115273;28;20410;-48
2022/04/27 10:05:30;;;;;;;;;;;19.20;99.90;;;;;;5114706;28;20423;-48
2022/04/27 10:07:55;;;;;;;;;;;19.20;99.90;;;;;;5115029;28;19908;-47
2022/04/27 10:10:21;;;;;;;;;;;19.20;99.90;;;;;;5115138;28;20010;-52
2022/04/27 10:12:48;;;;;;;;;;;19.30;99.90;;;;;;5115180;28;19912;-47
2022/04/27 10:15:13;;;;;;;;;;;19.30;99.90;;;;;;5114847;28;19908;-51
2022/04/27 10:17:40;;;;;;;;;;;19.30;99.90;;;;;;5114770;28;19907;-51
2022/04/27 10:20:25;;;;;;;;;;;19.20;99.90;;;;;;5114946;28;19968;-50
2022/04/27 10:22:51;;;;;;;;;;;19.20;99.90;;;;;;5114703;28;19993;-52
2022/04/27 10:25:18;;;;;;;;;;;19.30;99.90;;;;;;5114914;28;19911;-52
2022/04/27 10:27:44;;;;;;;;;;;19.30;99.90;;;;;;5096623;28;19911;-48
2022/04/27 10:30:11;;;;;;;;;;;19.30;99.90;;;;;;5130740;27;20111;-47
2022/04/27 10:32:44;;;;;;;;;;;19.30;99.90;;;;;;5114792;28;19965;-46
2022/04/27 10:35:10;;;;;;;;;;;19.30;99.90;;;;;;5114900;28;20314;-48
2022/04/27 10:37:45;;;;;;;;;;;19.30;99.90;;;;;;5114623;28;19962;-48
2022/04/27 10:40:29;;;;;;;;;;;19.30;99.90;;;;;;5114894;28;19923;-51
2022/04/27 10:43:12;;;;;;;;;;;19.30;99.90;;;;;;5114770;28;20421;-46
2022/04/27 10:45:39;;;;;;;;;;;19.30;99.90;;;;;;5114824;28;19911;-50
2022/04/27 10:48:13;;;;;;;;;;;19.30;99.90;;;;;;5114436;28;19915;-49
2022/04/27 10:50:39;;;;;;;;;;;19.30;99.90;;;;;;5114526;28;19907;-48
2022/04/27 10:53:14;;;;;;;;;;;19.30;99.90;;;;;;5114687;28;19956;-47
2022/04/27 10:55:40;;;;;;;;;;;19.30;99.90;;;;;;5114758;28;19953;-50
2022/04/27 10:58:12;;;;;;;;;;;19.30;99.90;;;;;;5114233;28;19908;-49
2022/04/27 11:00:56;;;;;;;;;;;19.40;99.90;;;;;;5113953;28;19915;-52
2022/04/27 11:03:22;;;;;;;;;;;19.30;99.90;;;;;;5114369;28;19908;-50
2022/04/27 11:05:47;;;;;;;;;;;19.40;99.90;;;;;;5096477;28;19915;-49
2022/04/27 11:08:32;;;;;;;;;;;19.40;99.90;;;;;;5114166;28;19907;-49
2022/04/27 11:11:02;;;;;;;;;;;19.40;99.90;;;;;;5113809;28;19907;-49
2022/04/27 11:13:29;;;;;;;;;;;19.40;99.90;;;;;;5113817;28;19953;-48
2022/04/27 11:16:06;;;;;;;;;;;19.30;99.90;;;;;;5114001;28;19908;-46
2022/04/27 11:18:50;;;;;;;;;;;19.40;99.90;;;;;;5113127;28;20350;-51
2022/04/27 11:21:17;;;;;;;;;;;19.40;99.90;;;;;;5113853;28;19916;-47
2022/04/27 11:23:43;;;;;;;;;;;19.40;99.90;;;;;;5113898;28;19919;-51
2022/04/27 11:26:09;;;;;;;;;;;19.40;99.90;;;;;;5113682;28;19914;-47
2022/04/27 11:28:36;;;;;;;;;;;19.40;99.90;;;;;;5114031;28;19999;-47
2022/04/27 11:31:01;;;;;;;;;;;19.40;99.90;;;;;;5095644;28;20312;-51
2022/04/27 11:33:27;;;;;;;;;;;19.40;99.90;;;;;;5114310;28;19920;-48
2022/04/27 11:35:53;;;;;;;;;;;19.40;99.90;;;;;;5114144;28;19911;-47
2022/04/27 11:38:19;;;;;;;;;;;19.40;99.90;;;;;;5113913;28;20453;-51
2022/04/27 11:40:46;;;;;;;;;;;19.40;99.90;;;;;;5114140;28;19985;-48
2022/04/27 11:43:13;;;;;;;;;;;19.50;99.90;;;;;;5114338;28;19930;-45
2022/04/27 11:45:38;;;;;;;;;;;19.40;99.90;;;;;;5113771;28;19912;-48
2022/04/27 11:48:10;;;;;;;;;;;19.40;99.90;;;;;;5113816;28;19908;-47
2022/04/27 11:50:37;;;;;;;;;;;19.40;99.90;;;;;;5113463;28;19943;-51
2022/04/27 11:53:07;;;;;;;;;;;19.40;99.90;;;;;;5113957;28;19911;-48
2022/04/27 11:55:34;;;;;;;;;;;19.40;99.90;;;;;;5113510;28;19951;-49
2022/04/27 11:58:00;;;;;;;;;;;19.40;99.90;;;;;;5113950;28;20389;-51
2022/04/27 12:00:27;;;;;;;;;;;19.50;99.90;;;;;;5113520;28;19923;-45
2022/04/27 12:02:53;;;;;;;;;;;19.40;99.90;;;;;;5113851;28;20335;-47
2022/04/27 12:05:27;;;;;;;;;;;19.40;99.90;;;;;;5113578;28;20049;-46
2022/04/27 12:07:53;;;;;;;;;;;19.50;99.90;;;;;;5113736;28;19912;-47
2022/04/27 12:10:18;;;;;;;;;;;19.50;99.90;;;;;;5113848;28;19912;-48
2022/04/27 12:12:44;;;;;;;;;;;19.50;99.90;;;;;;5113475;28;20316;-49
2022/04/27 12:15:11;;;;;;;;;;;19.50;99.90;;;;;;5113245;28;20388;-48
2022/04/27 12:17:53;;;;;;;;;;;19.50;99.90;;;;;;5113426;28;20338;-51
2022/04/27 12:20:27;;;;;;;;;;;19.50;99.90;;;;;;5113379;28;20370;-48
2022/04/27 12:22:55;;;;;;;;;;;19.50;99.90;;;;;;5113058;28;19919;-48
2022/04/27 12:25:21;;;;;;;;;;;19.40;99.90;;;;;;5113590;28;19918;-48
2022/04/27 12:27:48;;;;;;;;;;;19.50;99.90;;;;;;5113488;28;19994;-52
2022/04/27 12:30:18;;;;;;;;;;;19.50;99.90;;;;;;5116805;28;19915;-51
2022/04/27 12:32:44;;;;;;;;;;;19.50;99.90;;;;;;5117022;28;19922;-50
2022/04/27 12:37:54;;;;;;;;;;;19.50;99.90;;;;;;5117025;28;19915;-51
2022/04/27 12:40:20;;;;;;;;;;;19.50;99.90;;;;;;5116541;28;20328;-53
2022/04/27 12:43:01;;;;;;;;;;;19.60;99.90;;;;;;5116601;28;19908;-51
2022/04/27 12:45:27;;;;;;;;;;;19.60;99.90;;;;;;5116494;28;19915;-49
2022/04/27 12:47:53;;;;;;;;;;;19.60;99.90;;;;;;5116624;28;20300;-49
2022/04/27 12:50:19;;;;;;;;;;;19.50;99.90;;;;;;5116565;28;19920;-49
2022/04/27 12:52:46;;;;;;;;;;;19.50;99.90;;;;;;5098499;28;20266;-51
2022/04/27 12:55:12;;;;;;;;;;;19.50;99.90;;;;;;5117094;28;19915;-49
2022/04/27 12:57:50;;;;;;;;;;;19.60;99.90;;;;;;5116557;28;19908;-48
2022/04/27 13:00:17;;;;;;;;;;;19.60;99.90;;;;;;5116429;28;19916;-47
2022/04/27 13:02:43;;;;;;;;;;;19.50;99.90;;;;;;5116470;28;19911;-47
2022/04/27 13:05:09;;;;;;;;;;;19.50;99.90;;;;;;5116282;28;20365;-48
2022/04/27 13:07:35;;;;;;;;;;;19.50;99.90;;;;;;5116152;28;19947;-47
2022/04/27 13:12:44;;;;;;;;;;;19.60;99.90;;;;;;5116349;28;20319;-47
2022/04/27 13:15:10;;;;;;;;;;;19.60;99.90;;;;;;5116203;28;20003;-49
2022/04/27 13:17:36;;;;;;;;;;;19.60;99.90;;;;;;5116256;28;19908;-49
2022/04/27 13:20:02;;;;;;;;;;;19.60;99.90;;;;;;5116089;28;20385;-48
2022/04/27 13:22:28;;;;;;;;;;;19.60;99.90;;;;;;5115891;28;19953;-49
2022/04/27 13:24:54;;;;;;;;;;;19.60;99.90;;;;;;5116074;28;20312;-51
2022/04/27 13:27:22;;;;;;;;;;;19.60;99.90;;;;;;5115679;28;19947;-48
2022/04/27 13:29:47;;;;;;;;;;;19.60;99.90;;;;;;5115960;28;19953;-48
2022/04/27 13:32:13;;;;;;;;;;;19.60;99.90;;;;;;5115773;28;19924;-49
2022/04/27 13:34:38;;;;;;;;;;;19.50;99.90;;;;;;5115442;28;19908;-49
2022/04/27 13:37:04;;;;;;;;;;;19.40;99.90;;;;;;5115297;28;20251;-46
2022/04/27 13:39:29;;;;;;;;;;;19.40;99.90;;;;;;5115060;28;19957;-48
2022/04/27 13:41:58;;;;;;;;;;;19.50;99.90;;;;;;5096270;28;20285;-46
2022/04/27 13:44:24;;;;;;;;;;;19.40;99.90;;;;;;5115394;28;19933;-47
2022/04/27 13:46:50;;;;;;;;;;;19.50;99.90;;;;;;5131429;27;19908;-46
2022/04/27 13:49:16;;;;;;;;;;;19.50;99.90;;;;;;5115581;28;19915;-48
2022/04/27 13:51:42;;;;;;;;;;;19.50;99.90;;;;;;5097247;28;19915;-48
2022/04/27 13:54:07;;;;;;;;;;;19.40;99.90;;;;;;5115342;28;19908;-48
2022/04/27 13:56:33;;;;;;;;;;;19.50;99.90;;;;;;5097138;28;19943;-51
2022/04/27 13:58:59;;;;;;;;;;;19.50;99.90;;;;;;5115489;28;19943;-50
2022/04/27 14:01:24;;;;;;;;;;;19.40;99.90;;;;;;5115317;28;19923;-49
2022/04/27 14:03:50;;;;;;;;;;;19.50;99.90;;;;;;5097286;28;19907;-47
2022/04/27 14:06:18;;;;;;;;;;;19.40;99.90;;;;;;5115331;28;19907;-46
2022/04/27 14:08:44;;;;;;;;;;;19.40;99.90;;;;;;5114794;28;19908;-47
2022/04/27 14:13:10;;;;;;;;;;;19.40;99.90;;;;;;5115343;28;19908;-52
2022/04/27 14:13:55;;;;;;;;;;;19.50;99.90;;;;;;5114804;28;19908;-51
2022/04/27 14:19:04;;;;;;;;;;;19.50;99.90;;;;;;5114935;28;19914;-50
2022/04/27 14:21:30;;;;;;;;;;;19.50;99.90;;;;;;5114461;28;19916;-46
2022/04/27 14:23:55;;;;;;;;;;;19.50;99.90;;;;;;5115322;28;20281;-50
2022/04/27 14:26:21;;;;;;;;;;;19.50;99.90;;;;;;5114554;28;19952;-49
2022/04/27 14:28:46;;;;;;;;;;;19.50;99.90;;;;;;5114161;28;19943;-49
2022/04/27 14:31:12;;;;;;;;;;;19.50;99.90;;;;;;5114306;28;20366;-49
2022/04/27 14:33:38;;;;;;;;;;;19.60;99.90;;;;;;5115000;28;19920;-49
2022/04/27 14:36:04;;;;;;;;;;;19.50;99.90;;;;;;5114845;28;20358;-47
2022/04/27 14:38:29;;;;;;;;;;;19.50;99.90;;;;;;5114703;28;19908;-51